createdAt,value
2019-03-20T00:00:20.427Z,68.17
2019-03-20T00:02:48.977Z,65.57
2019-03-20T00:05:17.103Z,72.82
2019-03-20T00:07:45.143Z,73.52
2019-03-20T00:10:13.351Z,70.37
2019-03-20T00:12:41.386Z,76.90
2019-03-20T00:15:10.441Z,67.70
2019-03-20T00:17:38.358Z,69.22
2019-03-20T00:20:07.489Z,76.02
2019-03-20T00:22:35.522Z,66.02
2019-03-20T00:25:03.789Z,69.12
2019-03-20T00:27:31.821Z,72.27
2019-03-20T00:30:00.514Z,61.15
2019-03-20T00:32:28.568Z,65.25
2019-03-20T00:35:00.912Z,59.95
2019-03-20T00:37:26.397Z,63.42
2019-03-20T00:39:54.511Z,58.05
2019-03-20T00:42:22.544Z,57.27
2019-03-20T00:44:50.727Z,55.50
2019-03-20T00:47:19.260Z,61.15
2019-03-20T00:49:47.278Z,52.90
2019-03-20T00:52:15.233Z,55.67
2019-03-20T00:54:43.399Z,54.53
2019-03-20T00:57:11.427Z,54.75
2019-03-20T00:59:39.433Z,52.00
2019-03-20T01:02:07.482Z,52.93
2019-03-20T01:04:35.707Z,60.05
2019-03-20T01:07:03.734Z,57.10
2019-03-20T01:09:31.824Z,58.85
2019-03-20T01:11:59.920Z,55.55
2019-03-20T01:14:27.937Z,53.23
2019-03-20T01:16:55.782Z,55.63
2019-03-20T01:19:23.775Z,55.08
2019-03-20T01:21:52.012Z,54.40
2019-03-20T01:24:19.857Z,51.60
2019-03-20T01:26:47.737Z,56.98
2019-03-20T01:29:15.961Z,60.12
2019-03-20T01:31:44.041Z,53.95
2019-03-20T01:34:12.041Z,57.70
2019-03-20T01:36:40.042Z,55.92
2019-03-20T01:39:08.886Z,63.87
2019-03-20T01:41:38.290Z,54.25
2019-03-20T01:44:06.551Z,53.25
2019-03-20T01:46:34.719Z,51.70
2019-03-20T01:49:02.663Z,55.38
2019-03-20T01:51:30.990Z,53.83
2019-03-20T01:53:59.005Z,53.95
2019-03-20T01:56:26.889Z,55.20
2019-03-20T01:58:55.086Z,56.90
2019-03-20T02:01:23.428Z,60.08
2019-03-20T02:03:51.576Z,58.92
2019-03-20T02:06:20.422Z,57.50
2019-03-20T02:08:49.164Z,50.98
2019-03-20T02:11:17.270Z,53.63
2019-03-20T02:13:45.290Z,52.95
2019-03-20T02:16:13.161Z,52.88
2019-03-20T02:18:41.082Z,58.63
2019-03-20T02:21:09.261Z,50.92
2019-03-20T02:23:37.212Z,50.28
2019-03-20T02:26:05.339Z,54.13
2019-03-20T02:28:33.346Z,61.48
2019-03-20T02:31:01.995Z,56.18
2019-03-20T02:33:31.204Z,56.40
2019-03-20T02:35:59.287Z,64.00
2019-03-20T02:38:27.098Z,58.40
2019-03-20T02:40:55.080Z,56.90
2019-03-20T02:43:23.493Z,49.25
2019-03-20T02:45:51.546Z,52.73
2019-03-20T02:48:19.518Z,60.52
2019-03-20T02:50:47.598Z,54.98
2019-03-20T02:53:15.660Z,56.58
2019-03-20T02:55:44.642Z,50.75
2019-03-20T02:58:12.600Z,56.42
2019-03-20T03:00:40.705Z,49.13
2019-03-20T03:03:08.756Z,48.02
2019-03-20T03:05:36.836Z,51.42
2019-03-20T03:08:05.038Z,51.40
2019-03-20T03:10:32.963Z,52.60
2019-03-20T03:13:00.886Z,53.80
2019-03-20T03:15:29.001Z,49.27
2019-03-20T03:17:57.128Z,53.30
2019-03-20T03:20:25.200Z,47.08
2019-03-20T03:22:53.237Z,48.10
2019-03-20T03:25:21.282Z,50.20
2019-03-20T03:27:49.484Z,50.35
2019-03-20T03:32:51.795Z,55.23
2019-03-20T03:35:20.435Z,52.85
2019-03-20T03:37:49.621Z,51.15
2019-03-20T03:40:17.720Z,54.08
2019-03-20T03:42:46.671Z,47.95
2019-03-20T03:45:14.804Z,51.65
2019-03-20T03:47:42.807Z,49.50
2019-03-20T03:50:11.294Z,50.45
2019-03-20T03:52:39.520Z,48.60
2019-03-20T03:55:07.674Z,52.78
2019-03-20T03:57:36.094Z,47.67
2019-03-20T04:00:05.108Z,48.23
2019-03-20T04:02:33.218Z,44.42
2019-03-20T04:05:01.268Z,49.95
2019-03-20T04:07:29.358Z,45.65
2019-03-20T04:09:57.409Z,49.55
2019-03-20T04:12:25.934Z,49.60
2019-03-20T04:14:53.997Z,46.13
2019-03-20T04:17:26.657Z,43.17
2019-03-20T04:19:54.581Z,43.10
2019-03-20T04:22:22.683Z,47.10
2019-03-20T04:24:50.766Z,52.05
2019-03-20T04:27:18.878Z,42.08
2019-03-20T04:29:46.856Z,48.42
2019-03-20T04:32:14.972Z,41.90
2019-03-20T04:34:43.079Z,43.23
2019-03-20T04:37:11.166Z,39.60
2019-03-20T04:39:40.249Z,42.78
2019-03-20T04:42:08.266Z,43.75
2019-03-20T04:44:36.501Z,50.65
2019-03-20T04:47:04.675Z,39.23
2019-03-20T04:49:32.728Z,44.58
2019-03-20T04:52:01.303Z,41.25
2019-03-20T04:54:29.275Z,44.45
2019-03-20T04:56:57.873Z,41.45
2019-03-20T04:59:25.941Z,43.87
2019-03-20T05:01:54.068Z,41.23
2019-03-20T05:04:21.924Z,46.10
2019-03-20T05:06:58.314Z,44.50
2019-03-20T05:09:20.014Z,43.13
2019-03-20T05:11:47.935Z,39.78
2019-03-20T05:14:16.046Z,44.83
2019-03-20T05:16:44.082Z,42.70
2019-03-20T05:19:12.144Z,40.52
2019-03-20T05:21:40.180Z,41.15
2019-03-20T05:24:08.297Z,43.00
2019-03-20T05:26:36.232Z,40.95
2019-03-20T05:29:04.357Z,39.25
2019-03-20T05:31:32.360Z,46.75
2019-03-20T05:34:00.577Z,46.68
2019-03-20T05:36:28.648Z,49.15
2019-03-20T05:38:56.866Z,43.60
2019-03-20T05:41:24.864Z,48.58
2019-03-20T05:43:52.854Z,44.65
2019-03-20T05:46:20.878Z,46.60
2019-03-20T05:48:49.102Z,52.08
2019-03-20T05:51:16.974Z,43.23
2019-03-20T05:53:45.014Z,47.13
2019-03-20T05:56:13.049Z,47.73
2019-03-20T05:58:41.068Z,51.35
2019-03-20T06:01:09.094Z,47.25
2019-03-20T06:03:37.131Z,54.48
2019-03-20T06:06:05.098Z,52.05
2019-03-20T06:08:33.502Z,43.55
2019-03-20T06:11:01.667Z,45.23
2019-03-20T06:13:29.773Z,45.23
2019-03-20T06:15:59.869Z,44.13
2019-03-20T06:18:27.765Z,43.87
2019-03-20T06:20:55.812Z,42.75
2019-03-20T06:23:23.902Z,38.83
2019-03-20T06:25:51.944Z,43.90
2019-03-20T06:28:20.065Z,41.80
2019-03-20T06:30:48.124Z,48.58
2019-03-20T06:33:16.195Z,47.05
2019-03-20T06:35:44.068Z,37.58
2019-03-20T06:38:12.211Z,40.52
2019-03-20T06:40:40.289Z,43.15
2019-03-20T06:43:08.282Z,40.03
2019-03-20T06:45:36.299Z,37.38
2019-03-20T06:48:04.467Z,35.52
2019-03-20T06:50:32.507Z,48.23
2019-03-20T06:53:01.385Z,39.23
2019-03-20T06:55:30.301Z,39.85
2019-03-20T06:57:58.231Z,41.53
2019-03-20T07:00:49.253Z,45.95
2019-03-20T07:03:41.579Z,40.48
2019-03-20T07:06:33.040Z,34.30
2019-03-20T07:09:31.875Z,27.98
2019-03-20T07:11:59.823Z,27.30
2019-03-20T07:14:27.803Z,32.85
2019-03-20T07:16:55.748Z,28.47
2019-03-20T07:19:24.450Z,26.68
2019-03-20T07:21:52.529Z,28.67
2019-03-20T07:24:20.813Z,21.75
2019-03-20T07:26:48.747Z,23.02
2019-03-20T07:29:16.849Z,16.48
2019-03-20T07:31:44.899Z,18.65
2019-03-20T07:34:13.087Z,23.52
2019-03-20T07:36:41.225Z,16.65
2019-03-20T07:39:09.758Z,17.55
2019-03-20T07:41:37.794Z,16.55
2019-03-20T07:44:05.901Z,20.88
2019-03-20T07:46:34.310Z,20.52
2019-03-20T07:49:02.434Z,16.07
2019-03-20T07:51:30.409Z,18.02
2019-03-20T07:53:58.562Z,16.00
2019-03-20T07:56:26.657Z,18.45
2019-03-20T07:58:54.859Z,14.63
2019-03-20T08:01:22.952Z,16.67
2019-03-20T08:03:51.000Z,14.23
2019-03-20T08:06:19.023Z,14.78
2019-03-20T08:08:47.224Z,364.50
2019-03-20T08:11:18.483Z,166.77
2019-03-20T08:13:46.500Z,359.77
2019-03-20T08:16:15.195Z,250.93
2019-03-20T08:18:43.260Z,278.10
2019-03-20T08:21:11.281Z,369.62
2019-03-20T08:23:39.333Z,56.73
2019-03-20T08:26:07.584Z,15.03
2019-03-20T08:28:36.641Z,13.60
2019-03-20T08:31:05.236Z,13.48
2019-03-20T08:33:33.424Z,15.18
2019-03-20T08:36:03.566Z,10.48
2019-03-20T08:38:32.163Z,20.30
2019-03-20T08:41:00.295Z,17.65
2019-03-20T08:43:30.762Z,15.98
2019-03-20T08:46:01.086Z,14.73
2019-03-20T08:48:29.046Z,43.92
2019-03-20T08:50:57.081Z,11.53
2019-03-20T08:53:25.350Z,14.55
2019-03-20T08:55:53.566Z,13.80
2019-03-20T08:58:21.621Z,14.07
2019-03-20T09:00:49.837Z,16.25
2019-03-20T09:03:18.238Z,18.40
2019-03-20T09:05:46.595Z,15.88
2019-03-20T09:08:14.626Z,13.03
2019-03-20T09:10:42.784Z,17.67
2019-03-20T09:13:10.825Z,14.13
2019-03-20T09:15:39.061Z,11.20
2019-03-20T09:18:07.375Z,16.83
2019-03-20T09:20:35.577Z,14.37
2019-03-20T09:23:03.862Z,12.87
2019-03-20T09:25:32.895Z,15.32
2019-03-20T09:28:00.933Z,14.13
2019-03-20T09:30:28.945Z,11.83
2019-03-20T09:32:57.647Z,11.47
2019-03-20T09:35:25.861Z,12.80
2019-03-20T09:37:53.796Z,11.53
2019-03-20T09:40:23.627Z,13.07
2019-03-20T09:42:53.893Z,8.77
2019-03-20T09:45:23.025Z,9.00
2019-03-20T09:47:51.766Z,11.33
2019-03-20T09:50:20.134Z,15.27
2019-03-20T09:52:50.077Z,9.67
2019-03-20T09:55:18.668Z,10.23
2019-03-20T09:57:46.743Z,11.13
2019-03-20T10:00:22.154Z,13.93
2019-03-20T10:02:50.264Z,10.20
2019-03-20T10:05:18.419Z,13.27
2019-03-20T10:07:46.551Z,11.57
2019-03-20T10:10:19.173Z,10.80
2019-03-20T10:12:47.270Z,12.27
2019-03-20T10:15:15.834Z,12.07
2019-03-20T10:17:43.981Z,12.30
2019-03-20T10:20:13.721Z,9.37
2019-03-20T10:22:41.876Z,6.90
2019-03-20T10:25:09.919Z,11.43
2019-03-20T10:27:38.053Z,11.70
2019-03-20T10:30:08.662Z,9.60
2019-03-20T10:32:36.787Z,5.00
2019-03-20T10:35:06.053Z,8.23
2019-03-20T10:37:34.180Z,7.67
2019-03-20T10:40:02.216Z,6.03
2019-03-20T10:42:30.325Z,6.87
2019-03-20T10:44:58.371Z,4.40
2019-03-20T10:47:26.526Z,7.03
2019-03-20T10:49:54.557Z,7.57
2019-03-20T10:52:22.460Z,8.63
2019-03-20T10:54:50.368Z,5.77
2019-03-20T10:57:18.460Z,5.80
2019-03-20T10:59:46.523Z,8.67
2019-03-20T11:02:14.632Z,8.33
2019-03-20T11:04:42.604Z,2.83
2019-03-20T11:07:10.683Z,3.20
2019-03-20T11:09:38.744Z,7.27
2019-03-20T11:12:06.768Z,7.63
2019-03-20T11:14:34.798Z,4.77
2019-03-20T11:17:02.942Z,6.33
2019-03-20T11:19:30.917Z,6.40
2019-03-20T11:21:59.012Z,4.20
2019-03-20T11:24:27.085Z,8.23
2019-03-20T11:26:55.102Z,6.20
2019-03-20T11:29:23.217Z,6.87
2019-03-20T11:31:51.354Z,7.23
2019-03-20T11:34:19.449Z,7.57
2019-03-20T11:36:47.659Z,7.90
2019-03-20T11:39:16.399Z,5.00
2019-03-20T11:41:44.474Z,9.27
2019-03-20T11:44:12.483Z,6.83
2019-03-20T11:46:40.578Z,9.53
2019-03-20T11:49:08.552Z,4.70
2019-03-20T11:51:36.573Z,4.23
2019-03-20T11:54:04.723Z,9.43
2019-03-20T11:56:32.865Z,7.67
2019-03-20T11:59:00.912Z,5.17
2019-03-20T12:01:28.947Z,7.27
2019-03-20T12:03:56.967Z,6.40
2019-03-20T12:06:24.849Z,5.30
2019-03-20T12:08:52.941Z,5.93
2019-03-20T12:11:21.442Z,8.13
2019-03-20T12:13:49.803Z,6.87
2019-03-20T12:16:17.652Z,4.70
2019-03-20T12:18:45.824Z,4.80
2019-03-20T12:21:13.877Z,4.13
2019-03-20T12:23:41.881Z,4.20
2019-03-20T12:26:09.934Z,5.47
2019-03-20T12:28:37.953Z,5.57
2019-03-20T12:31:07.818Z,6.67
2019-03-20T12:33:35.903Z,6.93
2019-03-20T12:36:04.067Z,7.03
2019-03-20T12:38:32.229Z,6.80
2019-03-20T12:41:00.772Z,10.63
2019-03-20T12:43:28.856Z,5.63
2019-03-20T12:45:56.915Z,5.10
2019-03-20T12:48:26.314Z,5.77
2019-03-20T12:50:54.332Z,4.87
2019-03-20T12:53:23.774Z,11.57
2019-03-20T12:55:51.802Z,4.83
2019-03-20T12:58:19.794Z,5.13
2019-03-20T13:03:15.371Z,7.67
2019-03-20T13:05:43.565Z,6.37
2019-03-20T13:08:21.288Z,8.67
2019-03-20T13:10:49.405Z,8.47
2019-03-20T13:13:19.288Z,10.87
2019-03-20T13:15:47.971Z,7.80
2019-03-20T13:18:16.418Z,7.20
2019-03-20T13:20:44.633Z,7.33
2019-03-20T13:23:14.308Z,10.23
2019-03-20T13:25:42.872Z,9.60
2019-03-20T13:28:11.162Z,8.40
2019-03-20T13:30:42.618Z,7.07
2019-03-20T13:33:10.757Z,6.53
2019-03-20T13:35:38.912Z,7.30
2019-03-20T13:38:07.930Z,5.37
2019-03-20T13:40:36.010Z,7.60
2019-03-20T13:43:04.277Z,7.57
2019-03-20T13:45:32.374Z,6.27
2019-03-20T13:48:00.435Z,5.33
2019-03-20T13:50:28.477Z,5.87
2019-03-20T13:52:56.577Z,5.53
2019-03-20T13:55:24.618Z,9.10
2019-03-20T13:58:23.225Z,5.57
2019-03-20T14:00:51.877Z,9.90
2019-03-20T14:03:20.589Z,9.67
2019-03-20T14:05:48.543Z,10.97
2019-03-20T14:08:16.650Z,7.63
2019-03-20T14:10:50.311Z,4.43
2019-03-20T14:13:14.564Z,4.50
2019-03-20T14:15:43.433Z,8.57
2019-03-20T14:18:11.414Z,9.13
2019-03-20T14:20:40.157Z,7.57
2019-03-20T14:23:08.045Z,8.50
2019-03-20T14:25:36.027Z,6.67
2019-03-20T14:28:04.085Z,8.40
2019-03-20T14:30:32.240Z,8.50
2019-03-20T14:33:00.278Z,8.93
2019-03-20T14:35:28.492Z,9.77
2019-03-20T14:37:56.616Z,5.20
2019-03-20T14:40:35.418Z,6.37
2019-03-20T14:42:56.325Z,7.43
2019-03-20T14:45:24.419Z,6.13
2019-03-20T14:47:52.900Z,10.27
2019-03-20T14:50:22.827Z,7.93
2019-03-20T14:52:50.873Z,6.80
2019-03-20T14:55:19.128Z,5.90
2019-03-20T14:57:47.200Z,6.50
2019-03-20T15:00:19.931Z,4.90
2019-03-20T15:02:48.028Z,5.03
2019-03-20T15:05:16.260Z,7.80
2019-03-20T15:07:44.327Z,7.67
2019-03-20T15:10:14.646Z,5.17
2019-03-20T15:12:49.592Z,5.47
2019-03-20T15:15:47.304Z,3.87
2019-03-20T15:18:15.222Z,7.40
2019-03-20T15:20:43.329Z,5.70
2019-03-20T15:23:11.266Z,8.93
2019-03-20T15:25:39.375Z,7.53
2019-03-20T15:28:07.396Z,5.63
2019-03-20T15:30:35.518Z,9.40
2019-03-20T15:33:03.688Z,6.87
2019-03-20T15:35:31.696Z,4.97
2019-03-20T15:37:59.686Z,6.07
2019-03-20T15:40:27.753Z,8.47
2019-03-20T15:42:55.801Z,6.27
2019-03-20T15:45:23.958Z,5.27
2019-03-20T15:47:52.066Z,4.77
2019-03-20T15:50:20.352Z,3.83
2019-03-20T15:52:48.445Z,5.30
2019-03-20T15:55:19.417Z,6.53
2019-03-20T15:57:47.362Z,4.80
2019-03-20T16:00:16.967Z,4.70
2019-03-20T16:02:45.317Z,6.13
2019-03-20T16:05:13.445Z,7.33
2019-03-20T16:07:41.817Z,5.20
2019-03-20T16:10:12.772Z,7.20
2019-03-20T16:12:40.919Z,5.60
2019-03-20T16:15:13.166Z,3.97
2019-03-20T16:17:42.029Z,5.77
2019-03-20T16:20:10.362Z,8.17
2019-03-20T16:22:38.388Z,6.90
2019-03-20T16:25:06.809Z,9.10
2019-03-20T16:27:34.892Z,8.10
2019-03-20T16:30:04.371Z,10.43
2019-03-20T16:32:32.433Z,8.60
2019-03-20T16:35:01.263Z,42.93
2019-03-20T16:37:29.383Z,120.40
2019-03-20T16:39:57.407Z,31.43
2019-03-20T16:42:25.470Z,20.77
2019-03-20T16:44:53.566Z,8.17
2019-03-20T16:47:21.687Z,22.17
2019-03-20T16:49:49.773Z,56.90
2019-03-20T16:52:17.875Z,248.77
2019-03-20T16:54:45.982Z,44.33
2019-03-20T16:57:13.928Z,16.37
2019-03-20T16:59:42.001Z,12.53
2019-03-20T17:02:10.122Z,13.53
2019-03-20T17:04:38.110Z,14.50
2019-03-20T17:07:06.364Z,16.47
2019-03-20T17:09:34.395Z,15.33
2019-03-20T17:12:02.633Z,10.93
2019-03-20T17:14:30.691Z,11.87
2019-03-20T17:17:00.901Z,8.67
2019-03-20T17:19:28.835Z,11.60
2019-03-20T17:21:56.888Z,10.87
2019-03-20T17:24:24.839Z,15.37
2019-03-20T17:26:53.185Z,14.30
2019-03-20T17:29:21.222Z,8.90
2019-03-20T17:31:49.390Z,12.97
2019-03-20T17:34:17.479Z,17.00
2019-03-20T17:36:46.102Z,12.23
2019-03-20T17:39:14.173Z,12.63
2019-03-20T17:41:42.983Z,13.87
2019-03-20T17:44:11.042Z,12.50
2019-03-20T17:46:39.531Z,15.40
2019-03-20T17:49:07.654Z,19.40
2019-03-20T17:51:35.727Z,18.63
2019-03-20T17:54:03.947Z,48.63
2019-03-20T17:56:32.040Z,53.77
2019-03-20T17:59:00.379Z,44.20
2019-03-20T18:01:28.439Z,39.93
2019-03-20T18:03:56.422Z,21.90
2019-03-20T18:06:24.472Z,40.23
2019-03-20T18:08:52.545Z,45.37
2019-03-20T18:11:20.810Z,86.13
2019-03-20T18:13:48.975Z,93.67
2019-03-20T18:16:16.999Z,73.03
2019-03-20T18:18:48.117Z,126.43
2019-03-20T18:21:16.339Z,112.03
2019-03-20T18:23:45.292Z,75.67
2019-03-20T18:26:13.479Z,64.10
2019-03-20T18:28:41.612Z,48.03
2019-03-20T18:31:09.807Z,33.53
2019-03-20T18:33:37.642Z,25.40
2019-03-20T18:36:05.807Z,20.67
2019-03-20T18:38:33.868Z,25.77
2019-03-20T18:41:01.842Z,23.33
2019-03-20T18:43:30.592Z,25.40
2019-03-20T18:45:58.723Z,23.90
2019-03-20T18:48:29.848Z,24.47
2019-03-20T18:50:57.812Z,24.83
2019-03-20T18:53:26.041Z,30.60
2019-03-20T18:55:55.296Z,29.40
2019-03-20T18:58:23.340Z,34.50
2019-03-20T19:00:51.330Z,25.97
2019-03-20T19:03:20.612Z,45.87
2019-03-20T19:05:58.254Z,72.80
2019-03-20T19:08:26.496Z,36.63
2019-03-20T19:10:54.656Z,26.37
2019-03-20T19:13:24.478Z,28.80
2019-03-20T19:15:52.627Z,26.33
2019-03-20T19:18:20.917Z,22.53
2019-03-20T19:20:48.976Z,37.63
2019-03-20T19:23:17.106Z,37.90
2019-03-20T19:25:45.194Z,38.57
2019-03-20T19:28:13.309Z,46.13
2019-03-20T19:30:42.668Z,40.00
2019-03-20T19:33:10.762Z,35.97
2019-03-20T19:35:38.832Z,38.57
2019-03-20T19:38:07.096Z,36.57
2019-03-20T19:40:35.751Z,39.00
2019-03-20T19:43:05.569Z,36.90
2019-03-20T19:45:34.386Z,44.07
2019-03-20T19:48:02.657Z,40.10
2019-03-20T19:50:31.108Z,46.97
2019-03-20T19:52:59.307Z,49.83
2019-03-20T19:55:27.403Z,50.60
2019-03-20T19:57:55.609Z,48.97
2019-03-20T20:00:23.738Z,53.23
2019-03-20T20:02:52.106Z,59.63
2019-03-20T20:05:20.213Z,57.70
2019-03-20T20:07:48.358Z,53.13
2019-03-20T20:10:16.675Z,51.93
2019-03-20T20:12:45.728Z,50.17
2019-03-20T20:15:16.520Z,44.60
2019-03-20T20:17:46.884Z,46.33
2019-03-20T20:20:16.125Z,56.13
2019-03-20T20:22:46.536Z,49.07
2019-03-20T20:25:14.708Z,50.03
2019-03-20T20:27:43.469Z,53.97
2019-03-20T20:30:13.687Z,53.17
2019-03-20T20:32:44.210Z,61.63
2019-03-20T20:35:12.559Z,55.70
2019-03-20T20:37:40.652Z,51.73
2019-03-20T20:40:10.662Z,50.30
2019-03-20T20:42:42.968Z,49.37
2019-03-20T20:45:09.396Z,59.10
2019-03-20T20:47:38.169Z,56.17
2019-03-20T20:50:06.689Z,52.53
2019-03-20T20:52:35.047Z,51.87
2019-03-20T20:55:03.271Z,49.03
2019-03-20T20:57:31.261Z,49.13
2019-03-20T20:59:59.456Z,52.33
2019-03-20T21:02:27.339Z,44.63
2019-03-20T21:04:55.365Z,53.47
2019-03-20T21:07:23.315Z,56.63
2019-03-20T21:09:51.511Z,52.87
2019-03-20T21:12:19.530Z,51.87
2019-03-20T21:14:47.743Z,61.07
2019-03-20T21:17:22.380Z,86.20
2019-03-20T21:19:51.210Z,104.87
2019-03-20T21:23:19.049Z,81.03
2019-03-20T21:25:47.734Z,60.93
2019-03-20T21:28:57.456Z,74.67
2019-03-20T21:31:33.186Z,63.40
2019-03-20T21:34:58.998Z,65.00
2019-03-20T21:38:14.191Z,65.10
2019-03-20T21:41:23.706Z,54.53
2019-03-20T21:44:31.646Z,57.50
2019-03-20T21:47:35.287Z,61.50
2019-03-20T21:51:02.728Z,54.83
2019-03-20T21:53:46.786Z,54.80
2019-03-20T21:56:25.430Z,59.33
2019-03-20T21:59:02.280Z,54.90
2019-03-20T22:02:11.389Z,64.07
2019-03-20T22:04:39.882Z,62.10
2019-03-20T22:07:09.294Z,59.03
2019-03-20T22:10:34.049Z,55.60
2019-03-20T22:13:29.193Z,50.63
2019-03-20T22:16:33.115Z,51.85
2019-03-20T22:19:53.354Z,56.77
2019-03-20T22:22:58.434Z,55.30
2019-03-20T22:26:03.485Z,54.27
2019-03-20T22:29:03.526Z,55.53
2019-03-20T22:31:33.049Z,58.20
2019-03-20T22:34:37.172Z,67.40
2019-03-20T22:37:05.719Z,59.70
2019-03-20T22:40:18.655Z,59.27
2019-03-20T22:43:00.333Z,65.63
2019-03-20T22:46:08.331Z,59.80
2019-03-20T22:49:35.824Z,62.87
2019-03-20T22:52:36.167Z,60.83
2019-03-20T22:55:37.913Z,53.37
2019-03-20T22:58:44.032Z,55.10
2019-03-20T23:01:42.609Z,59.93
2019-03-20T23:04:15.072Z,56.70
2019-03-20T23:06:43.770Z,56.97
2019-03-20T23:09:12.409Z,60.17
2019-03-20T23:11:40.967Z,59.43
2019-03-20T23:14:10.439Z,58.70
2019-03-20T23:16:39.021Z,52.20
2019-03-20T23:19:07.631Z,58.67
2019-03-20T23:21:36.143Z,50.27
2019-03-20T23:24:04.792Z,60.77
2019-03-20T23:26:33.280Z,54.10
2019-03-20T23:29:04.670Z,60.00
2019-03-20T23:31:33.309Z,60.33
2019-03-20T23:34:01.860Z,55.70
2019-03-20T23:36:30.367Z,52.07
2019-03-20T23:38:58.925Z,61.15
2019-03-20T23:41:27.542Z,55.65
2019-03-20T23:43:58.227Z,54.67
2019-03-20T23:46:26.694Z,54.42
2019-03-20T23:49:01.653Z,56.80
2019-03-20T23:51:30.216Z,52.65
2019-03-20T23:53:58.809Z,57.20
2019-03-20T23:56:29.299Z,56.35
2019-03-20T23:58:57.992Z,48.42
